Time;durP1;ratioP1;P1;durP2;ratioP2;P2;SDS_P1;SDS_P2;PMS_P1;PMS_P2;Temp;Humidity;BMP_temperature;BMP_pressure;BME280_temperature;BME280_humidity;BME280_pressure;Samples;Min_cycle;Max_cycle;Signal;HPM_P1;HPM_P2
2022/10/31 00:02:48;;;;;;;6.47;4.20;;;15.80;99.90;;;;;;10414219;28;20123;-61
2022/10/31 00:07:52;;;;;;;6.40;3.88;;;15.80;99.90;;;;;;10412086;28;20128;-61
2022/10/31 00:12:53;;;;;;;8.02;4.00;;;15.80;99.90;;;;;;10416037;28;20113;-61
2022/10/31 00:17:54;;;;;;;9.10;4.20;;;15.80;99.90;;;;;;10418298;28;20432;-60
2022/10/31 00:22:58;;;;;;;9.23;4.68;;;15.80;99.90;;;;;;10415755;28;20033;-60
2022/10/31 00:27:59;;;;;;;7.82;3.92;;;15.70;99.90;;;;;;10452404;28;20393;-62
2022/10/31 00:33:00;;;;;;;7.85;3.85;;;15.70;99.90;;;;;;10456407;28;20029;-61
2022/10/31 00:38:01;;;;;;;7.88;3.60;;;15.70;99.90;;;;;;10450988;28;20031;-61
2022/10/31 00:43:01;;;;;;;6.57;3.72;;;15.70;99.90;;;;;;10449990;28;20037;-60
2022/10/31 00:48:02;;;;;;;8.10;3.58;;;15.60;99.90;;;;;;10452436;28;20033;-61
2022/10/31 00:53:03;;;;;;;5.93;3.67;;;15.60;99.90;;;;;;10453039;28;20031;-65
2022/10/31 00:58:04;;;;;;;7.03;3.47;;;15.60;99.90;;;;;;10452527;28;20482;-61
2022/10/31 01:03:04;;;;;;;6.20;3.65;;;15.60;99.90;;;;;;10453109;28;20033;-63
2022/10/31 01:08:05;;;;;;;6.78;3.85;;;15.60;99.90;;;;;;10449554;28;20398;-61
2022/10/31 01:13:06;;;;;;;6.78;3.63;;;15.60;99.90;;;;;;10450499;28;20024;-63
2022/10/31 01:18:07;;;;;;;5.32;3.28;;;15.60;99.90;;;;;;10456188;28;20032;-62
2022/10/31 01:23:07;;;;;;;5.70;3.45;;;15.60;99.90;;;;;;10452740;28;20248;-61
2022/10/31 01:28:08;;;;;;;6.78;3.63;;;15.50;99.90;;;;;;10452596;28;20021;-63
2022/10/31 01:33:09;;;;;;;7.47;3.70;;;15.50;99.90;;;;;;10453248;28;20090;-61
2022/10/31 01:38:09;;;;;;;4.30;3.00;;;15.50;99.90;;;;;;10455314;28;20615;-61
2022/10/31 01:43:14;;;;;;;6.03;3.35;;;15.50;99.90;;;;;;10456205;28;20122;-61
2022/10/31 01:48:18;;;;;;;7.80;3.60;;;15.50;99.90;;;;;;10455540;28;20025;-61
2022/10/31 01:53:21;;;;;;;6.53;3.60;;;15.40;99.90;;;;;;10453108;28;20140;-61
2022/10/31 01:58:27;;;;;;;6.28;2.97;;;15.40;99.90;;;;;;10453931;28;20063;-66
2022/10/31 02:03:29;;;;;;;5.05;2.95;;;15.40;99.90;;;;;;10450904;28;20413;-62
2022/10/31 02:08:33;;;;;;;5.65;3.15;;;15.40;99.90;;;;;;10453853;28;20029;-61
2022/10/31 02:13:34;;;;;;;5.10;2.97;;;15.40;99.90;;;;;;10453912;28;20027;-61
2022/10/31 02:18:34;;;;;;;4.90;3.00;;;15.30;99.90;;;;;;10455433;28;20032;-61
2022/10/31 02:23:54;;;;;;;6.13;3.33;;;15.30;99.90;;;;;;10452855;28;20536;-61
2022/10/31 02:29:15;;;;;;;8.10;3.00;;;15.30;99.90;;;;;;10454458;28;20036;-60
2022/10/31 02:34:44;;;;;;;4.07;2.90;;;15.30;99.90;;;;;;10456190;28;21079;-60
2022/10/31 02:40:12;;;;;;;5.35;2.78;;;15.30;99.90;;;;;;10451797;28;20044;-60
2022/10/31 02:45:18;;;;;;;6.38;3.03;;;15.30;99.90;;;;;;10463341;28;20021;-61
2022/10/31 02:50:29;;;;;;;5.68;2.90;;;15.20;99.90;;;;;;10461470;28;21462;-61
2022/10/31 02:55:30;;;;;;;5.57;3.03;;;15.20;99.90;;;;;;10462548;28;20027;-61
2022/10/31 03:00:40;;;;;;;6.15;3.33;;;15.20;99.90;;;;;;10461692;28;20041;-65
2022/10/31 03:06:03;;;;;;;6.88;2.75;;;15.20;99.90;;;;;;10459197;28;20102;-60
2022/10/31 03:11:07;;;;;;;3.35;2.50;;;15.20;99.90;;;;;;10463431;28;20024;-61
2022/10/31 03:16:16;;;;;;;6.75;3.03;;;15.10;99.90;;;;;;10461931;28;20060;-60
2022/10/31 03:21:23;;;;;;;4.78;2.67;;;15.10;99.90;;;;;;10460835;28;20044;-60
2022/10/31 03:26:25;;;;;;;4.47;2.88;;;15.20;99.90;;;;;;10459714;28;20044;-61
2022/10/31 03:31:32;;;;;;;4.85;2.92;;;15.10;99.90;;;;;;10460187;28;20431;-61
2022/10/31 03:36:37;;;;;;;5.93;2.85;;;15.00;99.90;;;;;;10458693;28;20111;-60
2022/10/31 03:41:42;;;;;;;4.45;2.67;;;15.00;99.90;;;;;;10458939;28;20049;-61
2022/10/31 03:46:43;;;;;;;4.95;2.72;;;15.00;99.90;;;;;;10458621;28;20023;-60
2022/10/31 03:52:09;;;;;;;3.85;2.70;;;15.00;99.90;;;;;;10459501;28;20040;-60
2022/10/31 03:57:26;;;;;;;5.28;2.80;;;15.00;99.90;;;;;;10454098;28;20052;-60
2022/10/31 04:02:32;;;;;;;8.20;4.20;;;15.00;99.90;;;;;;10453929;28;20111;-62
2022/10/31 04:07:36;;;;;;;4.95;2.97;;;14.90;99.90;;;;;;10458561;28;20035;-67
2022/10/31 04:12:39;;;;;;;3.50;2.30;;;14.90;99.90;;;;;;10459802;28;20484;-60
2022/10/31 04:17:43;;;;;;;4.20;2.67;;;14.90;99.90;;;;;;10457544;28;20099;-61
2022/10/31 04:22:44;;;;;;;6.85;2.92;;;14.90;99.90;;;;;;10460660;28;20103;-60
2022/10/31 04:27:45;;;;;;;5.00;2.65;;;14.90;99.90;;;;;;10456168;28;20037;-65
2022/10/31 04:32:46;;;;;;;4.90;2.70;;;14.80;99.90;;;;;;10454649;28;20086;-61
2022/10/31 04:37:47;;;;;;;3.33;2.58;;;14.80;99.90;;;;;;10452735;28;20020;-60
2022/10/31 04:42:48;;;;;;;5.38;2.92;;;14.80;99.90;;;;;;10456338;28;20040;-71
2022/10/31 04:47:48;;;;;;;3.60;2.50;;;14.80;99.90;;;;;;10454594;28;20492;-60
2022/10/31 04:52:49;;;;;;;5.05;3.03;;;14.80;99.90;;;;;;10455306;28;20035;-61
2022/10/31 04:57:53;;;;;;;8.18;3.20;;;14.80;99.90;;;;;;10455316;28;20021;-61
2022/10/31 05:02:56;;;;;;;4.22;2.55;;;14.70;99.90;;;;;;10456027;28;20471;-62
2022/10/31 05:07:57;;;;;;;5.38;2.90;;;14.70;99.90;;;;;;10456663;28;20030;-60
2022/10/31 05:13:00;;;;;;;4.18;2.85;;;14.70;99.90;;;;;;10453204;28;21235;-61
2022/10/31 05:18:01;;;;;;;3.72;2.85;;;14.70;99.90;;;;;;10454869;28;20047;-60
2022/10/31 05:23:02;;;;;;;4.32;2.92;;;14.70;99.90;;;;;;10456782;28;20048;-60
2022/10/31 05:28:03;;;;;;;8.40;2.97;;;14.70;99.90;;;;;;10453940;28;20049;-61
2022/10/31 05:33:04;;;;;;;5.43;2.83;;;14.60;99.90;;;;;;10453931;28;20028;-61
2022/10/31 05:38:04;;;;;;;5.25;2.72;;;14.60;99.90;;;;;;10456189;28;20059;-67
2022/10/31 05:43:05;;;;;;;4.88;2.97;;;14.60;99.90;;;;;;10450443;28;20033;-60
2022/10/31 05:48:06;;;;;;;4.78;3.00;;;14.60;99.90;;;;;;10453904;28;20029;-60
2022/10/31 05:53:07;;;;;;;6.82;3.15;;;14.60;99.90;;;;;;10454430;28;20025;-60
2022/10/31 05:58:08;;;;;;;4.60;2.80;;;14.60;99.90;;;;;;10455051;28;20033;-63
2022/10/31 06:03:09;;;;;;;5.30;3.25;;;14.60;99.90;;;;;;10459796;28;20064;-61
2022/10/31 06:08:10;;;;;;;4.72;3.10;;;14.50;99.90;;;;;;10465050;28;20029;-60
2022/10/31 06:13:11;;;;;;;5.35;3.10;;;14.50;99.90;;;;;;10463499;28;20161;-62
2022/10/31 06:18:11;;;;;;;5.50;3.38;;;14.50;99.90;;;;;;10460961;28;20427;-60
2022/10/31 06:23:12;;;;;;;5.22;3.22;;;14.50;99.90;;;;;;10455921;28;20029;-60
2022/10/31 06:28:13;;;;;;;5.07;3.00;;;14.40;99.90;;;;;;10462203;28;20052;-60
2022/10/31 06:33:14;;;;;;;4.60;3.25;;;14.40;99.90;;;;;;10464898;28;20324;-63
2022/10/31 06:38:14;;;;;;;6.50;3.50;;;14.40;99.90;;;;;;10464546;28;20025;-61
2022/10/31 06:43:15;;;;;;;5.28;3.10;;;14.40;99.90;;;;;;10462956;28;20037;-60
2022/10/31 06:48:16;;;;;;;4.07;3.00;;;14.40;99.90;;;;;;10460747;28;20074;-60
2022/10/31 06:53:17;;;;;;;5.22;3.17;;;14.40;99.90;;;;;;10461886;28;20031;-61
2022/10/31 06:58:17;;;;;;;3.13;2.42;;;14.40;99.90;;;;;;10420332;28;20139;-61
2022/10/31 07:03:20;;;;;;;3.78;2.70;;;14.30;99.90;;;;;;10361325;28;20041;-60
2022/10/31 07:08:20;;;;;;;4.28;2.55;;;14.30;99.90;;;;;;10356312;28;20036;-60
2022/10/31 07:13:25;;;;;;;4.78;2.80;;;14.30;99.90;;;;;;10360002;28;20072;-60
2022/10/31 07:18:25;;;;;;;4.15;2.65;;;14.30;99.90;;;;;;10357599;28;20345;-63
2022/10/31 07:23:26;;;;;;;3.47;2.08;;;14.30;99.90;;;;;;10367282;28;20097;-60
2022/10/31 07:28:27;;;;;;;3.58;2.20;;;14.30;99.90;;;;;;10378340;28;20144;-61
2022/10/31 07:33:28;;;;;;;3.28;2.38;;;14.30;99.90;;;;;;10370991;28;20071;-60
2022/10/31 07:38:28;;;;;;;4.72;2.22;;;14.20;99.90;;;;;;10371028;28;20560;-62
2022/10/31 07:43:29;;;;;;;12.82;4.05;;;14.30;99.90;;;;;;10369277;28;20049;-60
2022/10/31 07:48:30;;;;;;;23.77;3.92;;;14.30;99.90;;;;;;10364639;28;20029;-60
2022/10/31 07:53:31;;;;;;;14.10;3.42;;;14.40;99.90;;;;;;10350822;28;20429;-60
2022/10/31 07:58:31;;;;;;;20.85;3.60;;;14.40;99.90;;;;;;10364781;28;20025;-60
2022/10/31 08:03:32;;;;;;;19.38;3.78;;;14.40;99.90;;;;;;10368177;28;20872;-60
2022/10/31 08:08:33;;;;;;;14.02;3.20;;;14.40;99.90;;;;;;10361980;28;20135;-60
2022/10/31 08:13:34;;;;;;;7.97;3.05;;;14.50;99.90;;;;;;10365361;28;20461;-60
2022/10/31 08:18:37;;;;;;;9.20;3.42;;;14.40;99.90;;;;;;10361069;28;20479;-60
2022/10/31 08:23:38;;;;;;;9.98;3.17;;;14.50;99.90;;;;;;10359744;28;20997;-60
2022/10/31 08:28:46;;;;;;;6.82;3.80;;;14.50;99.90;;;;;;10382751;28;20355;-60
2022/10/31 08:33:47;;;;;;;7.50;3.08;;;14.60;99.90;;;;;;10366430;28;20079;-60
2022/10/31 08:38:48;;;;;;;10.07;3.80;;;14.60;99.90;;;;;;10365229;28;20586;-60
2022/10/31 08:43:49;;;;;;;6.95;3.25;;;14.70;99.90;;;;;;10365616;28;20037;-60
2022/10/31 08:48:50;;;;;;;8.63;3.22;;;14.60;99.90;;;;;;10365257;28;20529;-60
2022/10/31 08:53:50;;;;;;;6.53;3.55;;;14.60;99.90;;;;;;10372732;28;20031;-60
2022/10/31 08:58:53;;;;;;;8.23;3.83;;;14.60;99.90;;;;;;10372698;28;20358;-61
2022/10/31 09:03:54;;;;;;;11.35;3.70;;;14.60;99.90;;;;;;10366017;28;20028;-60
2022/10/31 09:08:54;;;;;;;9.82;4.38;;;14.70;99.90;;;;;;10350429;28;20032;-61
2022/10/31 09:13:55;;;;;;;7.57;3.90;;;14.70;99.90;;;;;;10362900;28;20038;-60
2022/10/31 09:18:56;;;;;;;7.85;4.47;;;14.70;99.90;;;;;;10360661;28;20539;-59
2022/10/31 09:23:57;;;;;;;8.02;4.00;;;14.70;99.90;;;;;;10363225;28;20469;-60
2022/10/31 09:28:58;;;;;;;10.00;4.60;;;14.70;99.90;;;;;;10359790;28;20040;-59
2022/10/31 09:33:59;;;;;;;8.73;4.57;;;14.70;99.90;;;;;;10356765;28;20045;-59
2022/10/31 09:38:59;;;;;;;8.15;4.10;;;14.70;99.90;;;;;;10356068;28;20045;-60
2022/10/31 09:44:07;;;;;;;9.23;5.30;;;14.70;99.90;;;;;;10359796;28;20044;-60
2022/10/31 09:49:33;;;;;;;10.53;5.27;;;14.80;99.90;;;;;;10364891;28;20043;-61
2022/10/31 09:54:49;;;;;;;14.98;5.57;;;14.70;99.90;;;;;;10364686;28;20032;-60
2022/10/31 09:59:50;;;;;;;9.60;5.53;;;14.70;99.90;;;;;;10372431;28;20040;-60
2022/10/31 10:05:00;;;;;;;9.13;5.68;;;14.70;99.90;;;;;;10363808;28;20284;-62
2022/10/31 10:10:22;;;;;;;10.13;5.25;;;14.70;99.90;;;;;;10355258;28;20483;-61
2022/10/31 10:15:56;;;;;;;11.18;6.13;;;14.70;99.90;;;;;;10354834;28;20028;-65
2022/10/31 10:21:04;;;;;;;11.77;5.80;;;14.80;99.90;;;;;;10362608;28;20045;-59
2022/10/31 10:26:19;;;;;;;9.35;5.30;;;14.80;99.90;;;;;;10353092;28;20892;-59
2022/10/31 10:31:25;;;;;;;11.25;6.80;;;14.90;99.90;;;;;;10357643;28;20500;-61
2022/10/31 10:36:57;;;;;;;10.55;5.32;;;14.90;99.90;;;;;;10361458;28;20114;-61
2022/10/31 10:47:38;;;;;;;13.02;6.90;;;15.00;99.90;;;;;;10355415;28;20028;-60
2022/10/31 10:52:48;;;;;;;11.00;5.40;;;15.20;99.90;;;;;;10365196;28;20139;-60
2022/10/31 10:58:11;;;;;;;12.45;6.75;;;15.00;99.90;;;;;;10367567;28;20024;-63
2022/10/31 11:03:13;;;;;;;13.55;7.30;;;15.10;99.90;;;;;;10366289;28;20032;-61
2022/10/31 11:08:33;;;;;;;14.77;7.82;;;15.00;99.90;;;;;;10364205;28;20146;-73
2022/10/31 11:13:35;;;;;;;15.82;8.27;;;15.10;99.90;;;;;;10363694;28;20028;-64
2022/10/31 11:18:45;;;;;;;17.20;7.82;;;15.10;99.90;;;;;;10367787;28;20029;-63
2022/10/31 11:23:46;;;;;;;13.25;7.95;;;15.10;99.90;;;;;;10366205;28;21426;-63
2022/10/31 11:29:00;;;;;;;16.05;8.95;;;15.10;99.90;;;;;;10371243;28;20450;-63
2022/10/31 11:34:05;;;;;;;17.65;8.90;;;15.10;99.90;;;;;;10366156;28;20139;-61
2022/10/31 11:39:31;;;;;;;21.40;8.48;;;15.10;99.90;;;;;;10350039;28;20242;-62
2022/10/31 11:44:32;;;;;;;18.60;9.20;;;15.10;99.90;;;;;;10363979;28;20330;-63
2022/10/31 11:49:37;;;;;;;19.02;9.43;;;15.20;99.90;;;;;;10364523;28;20067;-63
2022/10/31 11:54:49;;;;;;;19.42;9.75;;;15.20;99.90;;;;;;10369936;28;20039;-62
2022/10/31 11:59:53;;;;;;;17.35;9.68;;;15.20;99.90;;;;;;10371515;28;20037;-62
2022/10/31 12:05:08;;;;;;;19.63;9.48;;;15.20;99.90;;;;;;10362756;28;20033;-62
2022/10/31 12:10:12;;;;;;;18.38;9.32;;;15.20;99.90;;;;;;10360098;28;20106;-64
2022/10/31 12:15:21;;;;;;;16.17;8.55;;;15.20;99.90;;;;;;10366931;28;20029;-63
2022/10/31 12:20:41;;;;;;;18.17;9.80;;;15.30;99.90;;;;;;10358887;28;20052;-62
2022/10/31 12:25:56;;;;;;;19.65;9.02;;;15.30;99.90;;;;;;10365383;28;20459;-63
2022/10/31 12:31:17;;;;;;;18.25;9.60;;;15.20;99.90;;;;;;10369509;28;20032;-62
2022/10/31 12:36:29;;;;;;;17.25;8.82;;;15.20;99.90;;;;;;10362740;28;20036;-63
2022/10/31 12:41:30;;;;;;;12.68;7.57;;;15.30;99.90;;;;;;10362617;28;20574;-61
2022/10/31 12:46:33;;;;;;;15.82;7.72;;;15.30;99.90;;;;;;10365446;28;20467;-63
2022/10/31 12:51:46;;;;;;;19.55;8.25;;;15.30;99.90;;;;;;10366055;28;20045;-63
2022/10/31 12:56:56;;;;;;;14.35;7.30;;;15.40;99.90;;;;;;10365667;28;20111;-64
2022/10/31 13:02:16;;;;;;;15.55;7.35;;;15.60;99.90;;;;;;10357544;28;20516;-64
2022/10/31 13:07:28;;;;;;;15.48;7.35;;;15.70;99.90;;;;;;10354038;28;20106;-63
2022/10/31 13:12:32;;;;;;;15.38;6.88;;;16.10;99.90;;;;;;10357794;28;20457;-64
2022/10/31 13:18:03;;;;;;;13.23;6.75;;;15.60;99.90;;;;;;10358111;28;20131;-67
2022/10/31 13:23:09;;;;;;;17.30;7.10;;;15.60;99.90;;;;;;10360273;28;20111;-64
2022/10/31 13:28:23;;;;;;;13.77;6.93;;;15.60;99.90;;;;;;10366334;28;20452;-64
2022/10/31 13:33:28;;;;;;;20.75;7.13;;;15.60;99.90;;;;;;10355701;28;20151;-63
2022/10/31 13:38:56;;;;;;;14.65;7.13;;;15.60;99.90;;;;;;10365799;28;20060;-63
2022/10/31 13:44:05;;;;;;;18.38;7.28;;;15.50;99.90;;;;;;10364775;28;20259;-61
2022/10/31 13:49:21;;;;;;;;;;;15.40;99.90;;;;;;10363122;28;20029;-62
2022/10/31 13:54:31;;;;;;;14.27;6.47;;;15.40;99.90;;;;;;10364740;28;20374;-62
2022/10/31 13:59:36;;;;;;;15.43;6.80;;;15.40;99.90;;;;;;10365026;28;20043;-62
2022/10/31 14:04:44;;;;;;;14.27;6.22;;;15.50;99.90;;;;;;10361417;28;20032;-62
2022/10/31 14:09:47;;;;;;;13.88;6.35;;;15.50;99.90;;;;;;10359943;28;20664;-62
2022/10/31 14:14:52;;;;;;;11.98;6.03;;;15.50;99.90;;;;;;10362021;28;20032;-61
2022/10/31 14:20:16;;;;;;;15.20;7.45;;;15.40;99.90;;;;;;10358474;28;20101;-62
2022/10/31 14:25:28;;;;;;;14.45;6.80;;;15.40;99.90;;;;;;10328118;28;20038;-62
2022/10/31 14:30:35;;;;;;;14.27;6.97;;;15.40;99.90;;;;;;10343645;28;20041;-62
2022/10/31 14:36:04;;;;;;;16.50;7.13;;;15.40;99.90;;;;;;10345590;28;20033;-62
2022/10/31 14:41:36;;;;;;;17.48;7.53;;;15.30;99.90;;;;;;10350797;28;21742;-62
2022/10/31 14:46:58;;;;;;;13.80;7.25;;;15.20;99.90;;;;;;10356323;28;20654;-63
2022/10/31 14:51:59;;;;;;;13.98;6.28;;;15.20;99.90;;;;;;10360643;28;20036;-62
2022/10/31 14:57:05;;;;;;;15.27;7.82;;;15.30;99.90;;;;;;10368918;28;20530;-62
2022/10/31 15:02:24;;;;;;;16.08;7.38;;;15.30;99.90;;;;;;10356823;28;20363;-62
2022/10/31 15:07:26;;;;;;;13.27;6.95;;;15.20;99.90;;;;;;10365680;28;20515;-61
2022/10/31 15:12:31;;;;;;;14.77;6.45;;;15.20;99.90;;;;;;10357264;28;20034;-62
2022/10/31 15:17:32;;;;;;;14.35;7.70;;;15.20;99.90;;;;;;10354412;28;20033;-62
2022/10/31 15:22:33;;;;;;;19.48;7.65;;;15.20;99.90;;;;;;10379484;28;20484;-62
2022/10/31 15:27:34;;;;;;;17.67;7.85;;;15.10;99.90;;;;;;10379441;28;20053;-62
2022/10/31 15:32:35;;;;;;;17.50;8.15;;;15.00;99.90;;;;;;10372233;28;20348;-62
2022/10/31 15:37:35;;;;;;;19.08;7.35;;;14.90;99.90;;;;;;10373278;28;20039;-62
2022/10/31 15:42:40;;;;;;;18.92;8.38;;;14.80;99.90;;;;;;10381985;28;20525;-63
2022/10/31 15:48:04;;;;;;;15.73;8.23;;;14.80;99.90;;;;;;10378946;28;20090;-63
2022/10/31 15:53:14;;;;;;;14.73;7.53;;;14.70;99.90;;;;;;10372308;28;20028;-63
2022/10/31 15:58:16;;;;;;;15.05;7.78;;;14.70;99.90;;;;;;10377188;28;20033;-63
2022/10/31 16:03:17;;;;;;;14.18;7.20;;;14.70;99.90;;;;;;10363554;28;20585;-60
2022/10/31 16:08:34;;;;;;;18.80;7.35;;;14.70;99.90;;;;;;10365450;28;20707;-59
2022/10/31 16:13:37;;;;;;;13.05;7.00;;;14.70;99.90;;;;;;10373564;28;20156;-63
2022/10/31 16:18:42;;;;;;;14.52;6.65;;;14.80;99.90;;;;;;10366415;28;20029;-62
2022/10/31 16:23:49;;;;;;;13.45;6.85;;;14.90;99.90;;;;;;10360398;28;20234;-62
2022/10/31 16:28:52;;;;;;;15.25;6.90;;;15.00;99.90;;;;;;10367069;28;20551;-63
2022/10/31 16:34:09;;;;;;;12.65;6.22;;;15.00;99.90;;;;;;10429835;28;20025;-62
2022/10/31 16:39:10;;;;;;;16.77;6.20;;;15.10;99.90;;;;;;10451337;28;20025;-62
2022/10/31 16:44:21;;;;;;;11.68;6.00;;;15.10;99.90;;;;;;10452507;28;20043;-62
2022/10/31 16:49:22;;;;;;;11.20;5.45;;;15.20;99.90;;;;;;10438172;28;20027;-62
2022/10/31 16:54:24;;;;;;;9.50;5.22;;;15.20;99.90;;;;;;10450028;28;20049;-66
2022/10/31 16:59:26;;;;;;;11.18;5.60;;;15.20;99.90;;;;;;10448144;28;20021;-62
2022/10/31 17:04:26;;;;;;;11.50;6.07;;;15.20;99.90;;;;;;10444859;28;20036;-68
2022/10/31 17:09:27;;;;;;;15.85;6.00;;;15.20;99.90;;;;;;10447875;28;20440;-61
2022/10/31 17:14:28;;;;;;;10.20;5.25;;;15.20;99.90;;;;;;10448516;28;20040;-62
2022/10/31 17:19:29;;;;;;;10.63;5.13;;;15.20;99.90;;;;;;10450037;28;20029;-62
2022/10/31 17:24:29;;;;;;;11.35;5.78;;;15.20;99.90;;;;;;10446128;28;20400;-61
2022/10/31 17:29:31;;;;;;;9.38;4.75;;;15.20;99.90;;;;;;10453888;28;20440;-65
2022/10/31 17:34:32;;;;;;;10.98;5.30;;;15.30;99.90;;;;;;10451293;28;20040;-62
2022/10/31 17:39:33;;;;;;;10.68;5.10;;;15.20;99.90;;;;;;10453620;28;20035;-63
2022/10/31 17:44:34;;;;;;;7.82;4.68;;;15.30;99.90;;;;;;10442720;28;20721;-61
2022/10/31 17:49:35;;;;;;;8.20;4.60;;;15.20;99.90;;;;;;10450841;28;20033;-64
2022/10/31 17:54:36;;;;;;;12.48;5.30;;;15.30;99.90;;;;;;10441953;28;20090;-63
2022/10/31 17:59:36;;;;;;;11.80;4.78;;;15.30;99.90;;;;;;10455148;28;20091;-65
2022/10/31 18:04:39;;;;;;;8.85;5.10;;;15.40;99.90;;;;;;10455317;28;20112;-63
2022/10/31 18:09:40;;;;;;;7.07;4.07;;;15.40;99.90;;;;;;10457242;28;20021;-66
2022/10/31 18:14:41;;;;;;;8.27;3.90;;;15.30;99.90;;;;;;10456800;28;20470;-62
2022/10/31 18:19:42;;;;;;;9.70;4.68;;;15.40;99.90;;;;;;10460027;28;20079;-64
2022/10/31 18:24:43;;;;;;;10.90;4.40;;;15.40;99.90;;;;;;10459229;28;20595;-62
2022/10/31 18:29:44;;;;;;;10.77;4.68;;;15.40;99.90;;;;;;10453706;28;20076;-63
2022/10/31 18:34:45;;;;;;;10.20;4.30;;;15.30;99.90;;;;;;10455016;28;20029;-63
2022/10/31 18:39:45;;;;;;;7.78;4.20;;;15.40;99.90;;;;;;10437367;28;20128;-62
2022/10/31 18:44:46;;;;;;;9.25;3.92;;;15.30;99.90;;;;;;10435589;28;20025;-63
2022/10/31 18:49:46;;;;;;;10.68;4.45;;;15.30;99.90;;;;;;10438135;28;20450;-62
2022/10/31 18:54:47;;;;;;;9.35;4.35;;;15.30;99.90;;;;;;10433869;28;20543;-62
2022/10/31 18:59:48;;;;;;;5.97;3.72;;;15.30;99.90;;;;;;10440581;28;20045;-62
2022/10/31 19:04:48;;;;;;;9.80;4.63;;;15.30;99.90;;;;;;10436377;28;20025;-61
2022/10/31 19:09:49;;;;;;;7.95;4.05;;;15.30;99.90;;;;;;10440109;28;20402;-62
2022/10/31 19:14:50;;;;;;;8.05;4.30;;;15.30;99.90;;;;;;10437482;28;20033;-62
2022/10/31 19:19:51;;;;;;;9.10;4.90;;;15.30;99.90;;;;;;10444875;28;20052;-62
2022/10/31 19:24:52;;;;;;;8.57;4.47;;;15.30;99.90;;;;;;10438000;28;20048;-62
2022/10/31 19:29:53;;;;;;;8.63;4.13;;;15.30;99.90;;;;;;10439388;28;20032;-62
2022/10/31 19:34:53;;;;;;;9.20;4.78;;;15.30;99.90;;;;;;10430626;28;20413;-67
2022/10/31 19:39:54;;;;;;;8.20;4.55;;;15.30;99.90;;;;;;10423317;28;20028;-62
2022/10/31 19:44:57;;;;;;;8.25;4.53;;;15.20;99.90;;;;;;10426081;28;20117;-68
2022/10/31 19:49:57;;;;;;;8.70;4.80;;;15.20;99.90;;;;;;10430172;28;20094;-61
2022/10/31 19:54:58;;;;;;;7.40;4.60;;;15.20;99.90;;;;;;10440818;28;20037;-64
2022/10/31 19:59:59;;;;;;;7.88;4.63;;;15.20;99.90;;;;;;10433909;28;20028;-62
2022/10/31 20:05:00;;;;;;;8.57;4.70;;;15.20;99.90;;;;;;10437661;28;20021;-68
2022/10/31 20:10:01;;;;;;;11.10;5.75;;;15.20;99.90;;;;;;10433760;28;20321;-62
2022/10/31 20:15:02;;;;;;;10.38;5.38;;;15.20;99.90;;;;;;10437306;28;20329;-62
2022/10/31 20:20:07;;;;;;;11.30;5.80;;;15.20;99.90;;;;;;10429208;28;20089;-62
2022/10/31 20:25:08;;;;;;;8.00;5.45;;;15.20;99.90;;;;;;10435947;28;20512;-62
2022/10/31 20:30:09;;;;;;;10.23;5.30;;;15.20;99.90;;;;;;10440188;28;20021;-69
2022/10/31 20:35:10;;;;;;;9.10;5.10;;;15.20;99.90;;;;;;10433480;28;20099;-63
2022/10/31 20:40:11;;;;;;;11.68;5.85;;;15.20;99.90;;;;;;10438314;28;20116;-63
2022/10/31 20:45:12;;;;;;;12.00;6.10;;;15.20;99.90;;;;;;10432033;28;20071;-63
2022/10/31 20:50:13;;;;;;;12.13;6.05;;;15.20;99.90;;;;;;10436504;28;20021;-62
2022/10/31 20:55:14;;;;;;;13.50;7.03;;;15.10;99.90;;;;;;10426593;28;20345;-61
2022/10/31 21:00:15;;;;;;;10.70;5.72;;;15.20;99.90;;;;;;10422544;28;20073;-69
2022/10/31 21:05:23;;;;;;;13.50;6.43;;;15.10;99.90;;;;;;10428093;28;20033;-62
2022/10/31 21:10:23;;;;;;;12.25;6.53;;;15.10;99.90;;;;;;10423085;28;20036;-61
2022/10/31 21:15:24;;;;;;;10.98;6.30;;;15.10;99.90;;;;;;10421858;28;20055;-61
2022/10/31 21:20:25;;;;;;;12.32;6.72;;;15.10;99.90;;;;;;10429813;28;20045;-63
2022/10/31 21:25:26;;;;;;;15.55;7.45;;;15.10;99.90;;;;;;10430833;28;20045;-62
2022/10/31 21:30:27;;;;;;;16.48;7.50;;;15.10;99.90;;;;;;10436622;28;20033;-66
2022/10/31 21:35:27;;;;;;;13.05;6.95;;;15.10;99.90;;;;;;10440242;28;20025;-62
2022/10/31 21:40:28;;;;;;;13.95;6.72;;;15.10;99.90;;;;;;10437356;28;20044;-62
2022/10/31 21:45:29;;;;;;;14.55;7.05;;;15.10;99.90;;;;;;10440253;28;20444;-63
2022/10/31 21:50:29;;;;;;;17.00;7.57;;;15.10;99.90;;;;;;10430907;28;20400;-62
2022/10/31 21:55:30;;;;;;;13.23;7.13;;;15.10;99.90;;;;;;10432996;28;20027;-62
2022/10/31 22:00:31;;;;;;;15.85;7.53;;;15.10;99.90;;;;;;10439206;28;20037;-63
2022/10/31 22:05:33;;;;;;;15.10;7.97;;;15.10;99.90;;;;;;10440510;28;20029;-62
2022/10/31 22:10:34;;;;;;;16.35;7.55;;;15.10;99.90;;;;;;10432314;28;20083;-62
2022/10/31 22:15:34;;;;;;;15.27;7.65;;;15.00;99.90;;;;;;10433681;28;20547;-62
2022/10/31 22:20:35;;;;;;;14.23;7.65;;;15.00;99.90;;;;;;10434357;28;20033;-63
2022/10/31 22:25:36;;;;;;;15.32;8.25;;;15.00;99.90;;;;;;10427624;28;20171;-62
2022/10/31 22:30:37;;;;;;;17.33;7.55;;;15.00;99.90;;;;;;10445683;28;20025;-61
2022/10/31 22:35:38;;;;;;;14.15;7.10;;;15.00;99.90;;;;;;10443813;28;20493;-62
2022/10/31 22:40:38;;;;;;;13.60;7.43;;;15.00;99.90;;;;;;10447117;28;20041;-61
2022/10/31 22:45:39;;;;;;;16.00;7.82;;;15.00;99.90;;;;;;10446731;28;20036;-62
2022/10/31 22:50:40;;;;;;;15.23;7.55;;;15.00;99.90;;;;;;10457971;28;20418;-65
2022/10/31 22:55:40;;;;;;;16.42;7.90;;;15.00;99.90;;;;;;10460511;28;20378;-63
2022/10/31 23:00:41;;;;;;;12.23;7.00;;;15.00;99.90;;;;;;10455276;28;20037;-61
2022/10/31 23:05:42;;;;;;;12.68;6.82;;;15.00;99.90;;;;;;10455318;28;20032;-63
2022/10/31 23:10:43;;;;;;;13.93;7.00;;;15.00;99.90;;;;;;10457429;28;20366;-61
2022/10/31 23:15:44;;;;;;;17.17;7.78;;;15.00;99.90;;;;;;10456130;28;20114;-61
2022/10/31 23:20:51;;;;;;;16.85;7.40;;;15.00;99.90;;;;;;10460027;28;20078;-62
2022/10/31 23:31:11;;;;;;;16.17;6.60;;;15.00;99.90;;;;;;10457012;28;20029;-61
2022/10/31 23:36:12;;;;;;;14.77;6.50;;;15.00;99.90;;;;;;10448750;28;20025;-61
2022/10/31 23:41:12;;;;;;;11.85;7.43;;;15.00;99.90;;;;;;10453763;28;20099;-61
2022/10/31 23:46:13;;;;;;;12.23;7.20;;;15.00;99.90;;;;;;10454508;28;20039;-62
2022/10/31 23:51:14;;;;;;;12.27;6.30;;;15.00;99.90;;;;;;10459025;28;20048;-61
2022/10/31 23:56:15;;;;;;;14.73;7.35;;;15.00;99.90;;;;;;10459682;28;20043;-61
